sensor_id;sensor_type;location;lat;lon;timestamp;P1;durP1;ratioP1;P2;durP2;ratioP2
24787;SDS011;12883;52.662;5.196;2022-10-16T00:01:53;1.83;;;1.83;;
24787;SDS011;12883;52.662;5.196;2022-10-16T00:04:19;1.67;;;1.67;;
24787;SDS011;12883;52.662;5.196;2022-10-16T00:06:44;1.67;;;1.67;;
24787;SDS011;12883;52.662;5.196;2022-10-16T00:09:09;2.17;;;2.17;;
24787;SDS011;12883;52.662;5.196;2022-10-16T00:11:36;1.77;;;1.77;;
24787;SDS011;12883;52.662;5.196;2022-10-16T00:14:04;1.60;;;1.60;;
24787;SDS011;12883;52.662;5.196;2022-10-16T00:16:32;1.77;;;1.77;;
24787;SDS011;12883;52.662;5.196;2022-10-16T00:18:59;1.17;;;1.17;;
24787;SDS011;12883;52.662;5.196;2022-10-16T00:21:25;1.33;;;1.33;;
24787;SDS011;12883;52.662;5.196;2022-10-16T00:23:54;1.80;;;1.80;;
24787;SDS011;12883;52.662;5.196;2022-10-16T00:26:21;1.27;;;1.27;;
24787;SDS011;12883;52.662;5.196;2022-10-16T00:28:47;1.23;;;1.23;;
24787;SDS011;12883;52.662;5.196;2022-10-16T00:31:14;1.30;;;1.30;;
24787;SDS011;12883;52.662;5.196;2022-10-16T00:33:41;1.47;;;1.47;;
24787;SDS011;12883;52.662;5.196;2022-10-16T00:36:07;1.67;;;1.67;;
24787;SDS011;12883;52.662;5.196;2022-10-16T00:38:35;2.00;;;2.00;;
24787;SDS011;12883;52.662;5.196;2022-10-16T00:41:02;1.90;;;1.90;;
24787;SDS011;12883;52.662;5.196;2022-10-16T00:48:36;1.90;;;1.90;;
24787;SDS011;12883;52.662;5.196;2022-10-16T00:51:01;2.03;;;2.03;;
24787;SDS011;12883;52.662;5.196;2022-10-16T00:53:27;1.65;;;1.65;;
24787;SDS011;12883;52.662;5.196;2022-10-16T00:55:53;2.13;;;2.13;;
24787;SDS011;12883;52.662;5.196;2022-10-16T00:58:18;1.77;;;1.77;;
24787;SDS011;12883;52.662;5.196;2022-10-16T01:00:45;1.80;;;1.80;;
24787;SDS011;12883;52.662;5.196;2022-10-16T01:11:47;2.03;;;2.03;;
24787;SDS011;12883;52.662;5.196;2022-10-16T01:17:02;2.20;;;2.20;;
24787;SDS011;12883;52.662;5.196;2022-10-16T01:22:03;1.97;;;1.97;;
24787;SDS011;12883;52.662;5.196;2022-10-16T01:24:48;2.03;;;2.03;;
24787;SDS011;12883;52.662;5.196;2022-10-16T01:27:25;2.23;;;2.23;;
24787;SDS011;12883;52.662;5.196;2022-10-16T01:40:30;1.77;;;1.77;;
24787;SDS011;12883;52.662;5.196;2022-10-16T01:43:00;1.93;;;1.93;;
24787;SDS011;12883;52.662;5.196;2022-10-16T01:45:29;2.17;;;2.17;;
24787;SDS011;12883;52.662;5.196;2022-10-16T01:47:57;1.90;;;1.90;;
24787;SDS011;12883;52.662;5.196;2022-10-16T01:50:25;2.60;;;2.60;;
24787;SDS011;12883;52.662;5.196;2022-10-16T01:52:52;1.80;;;1.80;;
24787;SDS011;12883;52.662;5.196;2022-10-16T01:55:28;2.37;;;2.37;;
24787;SDS011;12883;52.662;5.196;2022-10-16T01:57:57;2.40;;;2.40;;
24787;SDS011;12883;52.662;5.196;2022-10-16T02:00:26;2.20;;;2.20;;
24787;SDS011;12883;52.662;5.196;2022-10-16T02:02:52;2.30;;;2.30;;
24787;SDS011;12883;52.662;5.196;2022-10-16T02:05:26;2.20;;;2.20;;
24787;SDS011;12883;52.662;5.196;2022-10-16T02:07:56;2.13;;;2.13;;
24787;SDS011;12883;52.662;5.196;2022-10-16T02:10:21;3.00;;;3.00;;
24787;SDS011;12883;52.662;5.196;2022-10-16T02:13:35;1.70;;;1.70;;
24787;SDS011;12883;52.662;5.196;2022-10-16T02:15:41;2.03;;;2.03;;
24787;SDS011;12883;52.662;5.196;2022-10-16T02:18:07;1.80;;;1.80;;
24787;SDS011;12883;52.662;5.196;2022-10-16T02:20:37;1.40;;;1.40;;
24787;SDS011;12883;52.662;5.196;2022-10-16T02:23:19;1.23;;;1.23;;
24787;SDS011;12883;52.662;5.196;2022-10-16T02:25:54;1.57;;;1.57;;
24787;SDS011;12883;52.662;5.196;2022-10-16T02:28:28;1.60;;;1.60;;
24787;SDS011;12883;52.662;5.196;2022-10-16T02:31:02;1.53;;;1.53;;
24787;SDS011;12883;52.662;5.196;2022-10-16T02:33:29;1.67;;;1.67;;
24787;SDS011;12883;52.662;5.196;2022-10-16T02:35:57;1.40;;;1.40;;
24787;SDS011;12883;52.662;5.196;2022-10-16T02:38:23;1.30;;;1.30;;
24787;SDS011;12883;52.662;5.196;2022-10-16T02:40:50;1.50;;;1.50;;
24787;SDS011;12883;52.662;5.196;2022-10-16T02:43:16;1.70;;;1.70;;
24787;SDS011;12883;52.662;5.196;2022-10-16T02:45:42;1.90;;;1.90;;
24787;SDS011;12883;52.662;5.196;2022-10-16T02:48:07;1.40;;;1.40;;
24787;SDS011;12883;52.662;5.196;2022-10-16T02:50:32;1.53;;;1.53;;
24787;SDS011;12883;52.662;5.196;2022-10-16T02:52:58;1.70;;;1.70;;
24787;SDS011;12883;52.662;5.196;2022-10-16T02:55:23;1.40;;;1.40;;
24787;SDS011;12883;52.662;5.196;2022-10-16T02:57:48;1.33;;;1.33;;
24787;SDS011;12883;52.662;5.196;2022-10-16T03:00:15;1.60;;;1.60;;
24787;SDS011;12883;52.662;5.196;2022-10-16T03:02:41;1.50;;;1.50;;
24787;SDS011;12883;52.662;5.196;2022-10-16T03:05:07;1.27;;;1.27;;
24787;SDS011;12883;52.662;5.196;2022-10-16T03:07:33;1.53;;;1.53;;
24787;SDS011;12883;52.662;5.196;2022-10-16T03:09:58;1.67;;;1.67;;
24787;SDS011;12883;52.662;5.196;2022-10-16T03:12:27;1.63;;;1.63;;
24787;SDS011;12883;52.662;5.196;2022-10-16T03:14:53;1.60;;;1.60;;
24787;SDS011;12883;52.662;5.196;2022-10-16T03:17:19;1.97;;;1.97;;
24787;SDS011;12883;52.662;5.196;2022-10-16T03:19:45;1.60;;;1.60;;
24787;SDS011;12883;52.662;5.196;2022-10-16T03:22:10;1.67;;;1.67;;
24787;SDS011;12883;52.662;5.196;2022-10-16T03:24:35;1.70;;;1.70;;
24787;SDS011;12883;52.662;5.196;2022-10-16T03:27:01;1.87;;;1.87;;
24787;SDS011;12883;52.662;5.196;2022-10-16T03:29:27;1.40;;;1.40;;
24787;SDS011;12883;52.662;5.196;2022-10-16T03:31:54;2.00;;;2.00;;
24787;SDS011;12883;52.662;5.196;2022-10-16T03:34:19;1.63;;;1.63;;
24787;SDS011;12883;52.662;5.196;2022-10-16T03:36:45;1.53;;;1.53;;
24787;SDS011;12883;52.662;5.196;2022-10-16T03:39:10;1.80;;;1.80;;
24787;SDS011;12883;52.662;5.196;2022-10-16T03:41:35;2.30;;;2.30;;
24787;SDS011;12883;52.662;5.196;2022-10-16T03:44:01;2.03;;;2.03;;
24787;SDS011;12883;52.662;5.196;2022-10-16T03:46:26;1.93;;;1.93;;
24787;SDS011;12883;52.662;5.196;2022-10-16T03:48:52;1.80;;;1.80;;
24787;SDS011;12883;52.662;5.196;2022-10-16T03:51:17;2.47;;;2.47;;
24787;SDS011;12883;52.662;5.196;2022-10-16T03:53:42;2.37;;;2.37;;
24787;SDS011;12883;52.662;5.196;2022-10-16T03:56:08;1.80;;;1.80;;
24787;SDS011;12883;52.662;5.196;2022-10-16T03:58:33;2.33;;;2.33;;
24787;SDS011;12883;52.662;5.196;2022-10-16T04:00:58;2.03;;;2.03;;
24787;SDS011;12883;52.662;5.196;2022-10-16T04:03:24;2.00;;;2.00;;
24787;SDS011;12883;52.662;5.196;2022-10-16T04:05:49;1.90;;;1.90;;
24787;SDS011;12883;52.662;5.196;2022-10-16T04:08:15;2.30;;;2.30;;
24787;SDS011;12883;52.662;5.196;2022-10-16T04:10:44;2.60;;;2.60;;
24787;SDS011;12883;52.662;5.196;2022-10-16T04:13:10;2.30;;;2.30;;
24787;SDS011;12883;52.662;5.196;2022-10-16T04:15:36;2.17;;;2.17;;
24787;SDS011;12883;52.662;5.196;2022-10-16T04:18:01;1.90;;;1.90;;
24787;SDS011;12883;52.662;5.196;2022-10-16T04:20:26;2.67;;;2.67;;
24787;SDS011;12883;52.662;5.196;2022-10-16T04:22:52;2.40;;;2.40;;
24787;SDS011;12883;52.662;5.196;2022-10-16T04:25:17;2.73;;;2.73;;
24787;SDS011;12883;52.662;5.196;2022-10-16T04:27:43;3.03;;;3.03;;
24787;SDS011;12883;52.662;5.196;2022-10-16T04:30:08;2.80;;;2.80;;
24787;SDS011;12883;52.662;5.196;2022-10-16T04:32:34;2.30;;;2.30;;
24787;SDS011;12883;52.662;5.196;2022-10-16T04:35:00;2.83;;;2.83;;
24787;SDS011;12883;52.662;5.196;2022-10-16T04:37:25;2.90;;;2.90;;
24787;SDS011;12883;52.662;5.196;2022-10-16T04:39:52;2.97;;;2.97;;
24787;SDS011;12883;52.662;5.196;2022-10-16T04:42:20;3.07;;;3.07;;
24787;SDS011;12883;52.662;5.196;2022-10-16T04:44:46;3.43;;;3.43;;
24787;SDS011;12883;52.662;5.196;2022-10-16T04:47:12;3.17;;;3.17;;
24787;SDS011;12883;52.662;5.196;2022-10-16T04:49:37;2.93;;;2.93;;
24787;SDS011;12883;52.662;5.196;2022-10-16T04:52:03;2.97;;;2.97;;
24787;SDS011;12883;52.662;5.196;2022-10-16T04:54:28;2.77;;;2.77;;
24787;SDS011;12883;52.662;5.196;2022-10-16T04:56:54;2.93;;;2.93;;
24787;SDS011;12883;52.662;5.196;2022-10-16T04:59:19;2.90;;;2.90;;
24787;SDS011;12883;52.662;5.196;2022-10-16T05:01:45;2.60;;;2.60;;
24787;SDS011;12883;52.662;5.196;2022-10-16T05:04:11;3.00;;;3.00;;
24787;SDS011;12883;52.662;5.196;2022-10-16T05:06:37;2.37;;;2.37;;
24787;SDS011;12883;52.662;5.196;2022-10-16T05:09:03;2.73;;;2.73;;
24787;SDS011;12883;52.662;5.196;2022-10-16T05:11:31;2.50;;;2.50;;
24787;SDS011;12883;52.662;5.196;2022-10-16T05:13:57;3.03;;;3.03;;
24787;SDS011;12883;52.662;5.196;2022-10-16T05:16:22;2.77;;;2.77;;
24787;SDS011;12883;52.662;5.196;2022-10-16T05:18:48;2.60;;;2.60;;
24787;SDS011;12883;52.662;5.196;2022-10-16T05:21:13;2.30;;;2.30;;
24787;SDS011;12883;52.662;5.196;2022-10-16T05:23:38;2.40;;;2.40;;
24787;SDS011;12883;52.662;5.196;2022-10-16T05:26:04;2.43;;;2.43;;
24787;SDS011;12883;52.662;5.196;2022-10-16T05:28:30;2.40;;;2.40;;
24787;SDS011;12883;52.662;5.196;2022-10-16T05:30:56;2.43;;;2.43;;
24787;SDS011;12883;52.662;5.196;2022-10-16T05:33:22;2.50;;;2.50;;
24787;SDS011;12883;52.662;5.196;2022-10-16T05:35:49;2.70;;;2.70;;
24787;SDS011;12883;52.662;5.196;2022-10-16T05:38:15;2.83;;;2.83;;
24787;SDS011;12883;52.662;5.196;2022-10-16T05:40:41;2.30;;;2.30;;
24787;SDS011;12883;52.662;5.196;2022-10-16T05:43:06;2.83;;;2.83;;
24787;SDS011;12883;52.662;5.196;2022-10-16T05:45:32;2.37;;;2.37;;
24787;SDS011;12883;52.662;5.196;2022-10-16T05:47:57;2.70;;;2.70;;
24787;SDS011;12883;52.662;5.196;2022-10-16T05:50:23;2.33;;;2.33;;
24787;SDS011;12883;52.662;5.196;2022-10-16T05:52:48;2.73;;;2.73;;
24787;SDS011;12883;52.662;5.196;2022-10-16T05:55:13;2.60;;;2.60;;
24787;SDS011;12883;52.662;5.196;2022-10-16T05:57:39;1.80;;;1.80;;
24787;SDS011;12883;52.662;5.196;2022-10-16T06:00:04;2.00;;;2.00;;
24787;SDS011;12883;52.662;5.196;2022-10-16T06:02:30;2.40;;;2.40;;
24787;SDS011;12883;52.662;5.196;2022-10-16T06:04:56;2.77;;;2.77;;
24787;SDS011;12883;52.662;5.196;2022-10-16T06:07:21;2.73;;;2.73;;
24787;SDS011;12883;52.662;5.196;2022-10-16T06:09:48;2.70;;;2.70;;
24787;SDS011;12883;52.662;5.196;2022-10-16T06:12:14;2.90;;;2.90;;
24787;SDS011;12883;52.662;5.196;2022-10-16T06:14:40;2.83;;;2.83;;
24787;SDS011;12883;52.662;5.196;2022-10-16T06:17:05;3.23;;;3.23;;
24787;SDS011;12883;52.662;5.196;2022-10-16T06:19:31;2.80;;;2.80;;
24787;SDS011;12883;52.662;5.196;2022-10-16T06:21:56;2.60;;;2.60;;
24787;SDS011;12883;52.662;5.196;2022-10-16T06:24:23;2.90;;;2.90;;
24787;SDS011;12883;52.662;5.196;2022-10-16T06:26:48;2.53;;;2.53;;
24787;SDS011;12883;52.662;5.196;2022-10-16T06:29:13;2.67;;;2.67;;
24787;SDS011;12883;52.662;5.196;2022-10-16T06:31:39;3.10;;;3.10;;
24787;SDS011;12883;52.662;5.196;2022-10-16T06:34:04;2.93;;;2.93;;
24787;SDS011;12883;52.662;5.196;2022-10-16T06:36:34;2.80;;;2.80;;
24787;SDS011;12883;52.662;5.196;2022-10-16T06:38:59;2.70;;;2.70;;
24787;SDS011;12883;52.662;5.196;2022-10-16T06:41:25;3.22;;;3.22;;
24787;SDS011;12883;52.662;5.196;2022-10-16T06:43:50;2.63;;;2.63;;
24787;SDS011;12883;52.662;5.196;2022-10-16T06:46:18;2.15;;;2.15;;
24787;SDS011;12883;52.662;5.196;2022-10-16T06:48:45;3.17;;;3.17;;
24787;SDS011;12883;52.662;5.196;2022-10-16T06:51:12;2.27;;;2.27;;
24787;SDS011;12883;52.662;5.196;2022-10-16T06:53:40;2.60;;;2.60;;
24787;SDS011;12883;52.662;5.196;2022-10-16T06:58:38;2.37;;;2.37;;
24787;SDS011;12883;52.662;5.196;2022-10-16T07:01:04;2.43;;;2.43;;
24787;SDS011;12883;52.662;5.196;2022-10-16T07:03:30;2.23;;;2.23;;
24787;SDS011;12883;52.662;5.196;2022-10-16T07:05:56;1.77;;;1.77;;
24787;SDS011;12883;52.662;5.196;2022-10-16T07:08:22;1.83;;;1.83;;
24787;SDS011;12883;52.662;5.196;2022-10-16T07:10:47;2.13;;;2.13;;
24787;SDS011;12883;52.662;5.196;2022-10-16T07:13:13;2.00;;;2.00;;
24787;SDS011;12883;52.662;5.196;2022-10-16T07:15:39;1.67;;;1.67;;
24787;SDS011;12883;52.662;5.196;2022-10-16T07:18:05;1.93;;;1.93;;
24787;SDS011;12883;52.662;5.196;2022-10-16T07:20:31;2.00;;;2.00;;
24787;SDS011;12883;52.662;5.196;2022-10-16T07:22:56;2.30;;;2.30;;
24787;SDS011;12883;52.662;5.196;2022-10-16T07:25:22;2.20;;;2.20;;
24787;SDS011;12883;52.662;5.196;2022-10-16T07:27:47;2.37;;;2.37;;
24787;SDS011;12883;52.662;5.196;2022-10-16T07:30:12;3.23;;;3.23;;
24787;SDS011;12883;52.662;5.196;2022-10-16T07:32:38;2.23;;;2.23;;
24787;SDS011;12883;52.662;5.196;2022-10-16T07:35:03;2.00;;;2.00;;
24787;SDS011;12883;52.662;5.196;2022-10-16T07:37:29;2.75;;;2.75;;
24787;SDS011;12883;52.662;5.196;2022-10-16T07:39:55;2.90;;;2.90;;
24787;SDS011;12883;52.662;5.196;2022-10-16T07:42:20;2.83;;;2.83;;
24787;SDS011;12883;52.662;5.196;2022-10-16T07:44:46;3.03;;;3.03;;
24787;SDS011;12883;52.662;5.196;2022-10-16T07:47:11;2.60;;;2.60;;
24787;SDS011;12883;52.662;5.196;2022-10-16T07:49:36;3.00;;;3.00;;
24787;SDS011;12883;52.662;5.196;2022-10-16T07:52:02;3.00;;;3.00;;
24787;SDS011;12883;52.662;5.196;2022-10-16T07:54:27;2.25;;;2.25;;
24787;SDS011;12883;52.662;5.196;2022-10-16T07:56:52;2.70;;;2.70;;
24787;SDS011;12883;52.662;5.196;2022-10-16T07:59:18;2.30;;;2.30;;
24787;SDS011;12883;52.662;5.196;2022-10-16T08:01:43;2.37;;;2.37;;
24787;SDS011;12883;52.662;5.196;2022-10-16T08:04:09;2.37;;;2.37;;
24787;SDS011;12883;52.662;5.196;2022-10-16T08:06:35;2.90;;;2.90;;
24787;SDS011;12883;52.662;5.196;2022-10-16T08:09:02;2.67;;;2.67;;
24787;SDS011;12883;52.662;5.196;2022-10-16T08:11:28;1.98;;;1.98;;
24787;SDS011;12883;52.662;5.196;2022-10-16T08:13:53;2.47;;;2.47;;
24787;SDS011;12883;52.662;5.196;2022-10-16T08:16:19;2.17;;;2.17;;
24787;SDS011;12883;52.662;5.196;2022-10-16T08:18:45;2.28;;;2.28;;
24787;SDS011;12883;52.662;5.196;2022-10-16T08:21:15;2.43;;;2.43;;
24787;SDS011;12883;52.662;5.196;2022-10-16T08:23:42;2.42;;;2.42;;
24787;SDS011;12883;52.662;5.196;2022-10-16T08:26:08;2.45;;;2.45;;
24787;SDS011;12883;52.662;5.196;2022-10-16T08:28:33;2.03;;;2.03;;
24787;SDS011;12883;52.662;5.196;2022-10-16T08:31:09;2.75;;;2.75;;
24787;SDS011;12883;52.662;5.196;2022-10-16T08:33:37;2.53;;;2.53;;
24787;SDS011;12883;52.662;5.196;2022-10-16T08:36:04;2.23;;;2.23;;
24787;SDS011;12883;52.662;5.196;2022-10-16T08:38:30;2.10;;;2.10;;
24787;SDS011;12883;52.662;5.196;2022-10-16T08:41:17;2.43;;;2.43;;
24787;SDS011;12883;52.662;5.196;2022-10-16T08:49:30;3.20;;;3.20;;
24787;SDS011;12883;52.662;5.196;2022-10-16T08:51:56;3.25;;;3.25;;
24787;SDS011;12883;52.662;5.196;2022-10-16T08:56:55;2.75;;;2.75;;
24787;SDS011;12883;52.662;5.196;2022-10-16T08:59:21;3.30;;;3.30;;
24787;SDS011;12883;52.662;5.196;2022-10-16T09:01:47;3.03;;;3.03;;
24787;SDS011;12883;52.662;5.196;2022-10-16T09:04:37;3.08;;;3.08;;
24787;SDS011;12883;52.662;5.196;2022-10-16T09:15:40;3.08;;;3.08;;
24787;SDS011;12883;52.662;5.196;2022-10-16T09:23:31;2.92;;;2.92;;
24787;SDS011;12883;52.662;5.196;2022-10-16T09:26:00;2.92;;;2.92;;
24787;SDS011;12883;52.662;5.196;2022-10-16T09:28:27;2.92;;;2.92;;
24787;SDS011;12883;52.662;5.196;2022-10-16T09:30:52;3.05;;;3.05;;
24787;SDS011;12883;52.662;5.196;2022-10-16T09:33:19;3.50;;;3.50;;
24787;SDS011;12883;52.662;5.196;2022-10-16T09:35:53;2.83;;;2.83;;
24787;SDS011;12883;52.662;5.196;2022-10-16T09:38:22;3.53;;;3.53;;
24787;SDS011;12883;52.662;5.196;2022-10-16T09:40:58;3.10;;;3.10;;
24787;SDS011;12883;52.662;5.196;2022-10-16T09:46:38;3.20;;;3.20;;
24787;SDS011;12883;52.662;5.196;2022-10-16T09:49:16;3.85;;;3.85;;
24787;SDS011;12883;52.662;5.196;2022-10-16T09:51:48;3.83;;;3.83;;
24787;SDS011;12883;52.662;5.196;2022-10-16T09:54:18;3.78;;;3.67;;
24787;SDS011;12883;52.662;5.196;2022-10-16T09:56:45;3.65;;;3.65;;
24787;SDS011;12883;52.662;5.196;2022-10-16T09:59:12;3.05;;;3.05;;
24787;SDS011;12883;52.662;5.196;2022-10-16T10:01:40;3.75;;;3.75;;
24787;SDS011;12883;52.662;5.196;2022-10-16T10:04:08;4.80;;;4.75;;
24787;SDS011;12883;52.662;5.196;2022-10-16T10:06:36;4.03;;;4.03;;
24787;SDS011;12883;52.662;5.196;2022-10-16T10:09:24;2.97;;;2.97;;
24787;SDS011;12883;52.662;5.196;2022-10-16T10:11:53;3.65;;;3.65;;
24787;SDS011;12883;52.662;5.196;2022-10-16T10:14:38;3.42;;;3.42;;
24787;SDS011;12883;52.662;5.196;2022-10-16T10:19:37;3.60;;;3.60;;
24787;SDS011;12883;52.662;5.196;2022-10-16T10:22:16;3.25;;;3.25;;
24787;SDS011;12883;52.662;5.196;2022-10-16T10:30:49;2.90;;;2.90;;
24787;SDS011;12883;52.662;5.196;2022-10-16T10:34:01;3.05;;;3.05;;
24787;SDS011;12883;52.662;5.196;2022-10-16T10:38:56;3.38;;;3.38;;
24787;SDS011;12883;52.662;5.196;2022-10-16T10:50:16;3.00;;;3.00;;
24787;SDS011;12883;52.662;5.196;2022-10-16T11:01:44;3.03;;;3.03;;
24787;SDS011;12883;52.662;5.196;2022-10-16T11:04:44;2.92;;;2.92;;
24787;SDS011;12883;52.662;5.196;2022-10-16T11:10:40;3.78;;;3.78;;
24787;SDS011;12883;52.662;5.196;2022-10-16T11:13:16;2.75;;;2.75;;
24787;SDS011;12883;52.662;5.196;2022-10-16T11:15:50;2.35;;;2.35;;
24787;SDS011;12883;52.662;5.196;2022-10-16T11:18:44;3.00;;;3.00;;
24787;SDS011;12883;52.662;5.196;2022-10-16T11:21:13;3.50;;;3.50;;
24787;SDS011;12883;52.662;5.196;2022-10-16T11:23:49;2.58;;;2.58;;
24787;SDS011;12883;52.662;5.196;2022-10-16T11:26:33;3.33;;;3.33;;
24787;SDS011;12883;52.662;5.196;2022-10-16T11:29:03;3.33;;;3.33;;
24787;SDS011;12883;52.662;5.196;2022-10-16T11:31:41;3.30;;;3.30;;
24787;SDS011;12883;52.662;5.196;2022-10-16T11:34:13;3.67;;;3.67;;
24787;SDS011;12883;52.662;5.196;2022-10-16T11:37:05;3.20;;;3.20;;
24787;SDS011;12883;52.662;5.196;2022-10-16T11:39:37;3.33;;;3.33;;
24787;SDS011;12883;52.662;5.196;2022-10-16T11:47:42;3.58;;;3.58;;
24787;SDS011;12883;52.662;5.196;2022-10-16T11:52:55;3.67;;;3.67;;
24787;SDS011;12883;52.662;5.196;2022-10-16T11:55:49;2.85;;;2.85;;
24787;SDS011;12883;52.662;5.196;2022-10-16T12:03:55;3.15;;;3.15;;
24787;SDS011;12883;52.662;5.196;2022-10-16T12:09:05;3.20;;;3.20;;
24787;SDS011;12883;52.662;5.196;2022-10-16T12:11:40;3.08;;;3.08;;
24787;SDS011;12883;52.662;5.196;2022-10-16T12:16:37;3.13;;;3.13;;
24787;SDS011;12883;52.662;5.196;2022-10-16T12:19:10;3.55;;;3.55;;
24787;SDS011;12883;52.662;5.196;2022-10-16T12:21:40;3.05;;;3.05;;
24787;SDS011;12883;52.662;5.196;2022-10-16T12:24:06;3.10;;;3.10;;
24787;SDS011;12883;52.662;5.196;2022-10-16T12:26:47;3.65;;;3.65;;
24787;SDS011;12883;52.662;5.196;2022-10-16T12:31:47;2.50;;;2.50;;
24787;SDS011;12883;52.662;5.196;2022-10-16T12:37:19;3.28;;;3.28;;
24787;SDS011;12883;52.662;5.196;2022-10-16T12:39:48;2.40;;;2.40;;
24787;SDS011;12883;52.662;5.196;2022-10-16T12:42:19;2.88;;;2.88;;
24787;SDS011;12883;52.662;5.196;2022-10-16T12:44:48;2.63;;;2.63;;
24787;SDS011;12883;52.662;5.196;2022-10-16T12:47:48;2.97;;;2.97;;
24787;SDS011;12883;52.662;5.196;2022-10-16T12:50:29;2.70;;;2.70;;
24787;SDS011;12883;52.662;5.196;2022-10-16T12:52:57;3.05;;;3.05;;
24787;SDS011;12883;52.662;5.196;2022-10-16T12:55:23;3.00;;;3.00;;
24787;SDS011;12883;52.662;5.196;2022-10-16T12:58:00;2.58;;;2.58;;
24787;SDS011;12883;52.662;5.196;2022-10-16T13:00:47;3.08;;;3.08;;
24787;SDS011;12883;52.662;5.196;2022-10-16T13:03:40;3.15;;;3.15;;
24787;SDS011;12883;52.662;5.196;2022-10-16T13:06:19;2.55;;;2.55;;
24787;SDS011;12883;52.662;5.196;2022-10-16T13:09:08;2.95;;;2.95;;
24787;SDS011;12883;52.662;5.196;2022-10-16T13:14:52;2.60;;;2.60;;
24787;SDS011;12883;52.662;5.196;2022-10-16T13:28:43;2.63;;;2.63;;
24787;SDS011;12883;52.662;5.196;2022-10-16T13:31:14;3.22;;;3.22;;
24787;SDS011;12883;52.662;5.196;2022-10-16T13:33:51;2.55;;;2.55;;
24787;SDS011;12883;52.662;5.196;2022-10-16T13:36:24;2.20;;;2.20;;
24787;SDS011;12883;52.662;5.196;2022-10-16T13:41:39;2.72;;;2.72;;
24787;SDS011;12883;52.662;5.196;2022-10-16T13:44:05;2.72;;;2.72;;
24787;SDS011;12883;52.662;5.196;2022-10-16T13:46:37;2.75;;;2.75;;
24787;SDS011;12883;52.662;5.196;2022-10-16T13:49:12;2.63;;;2.63;;
24787;SDS011;12883;52.662;5.196;2022-10-16T13:51:40;2.50;;;2.50;;
24787;SDS011;12883;52.662;5.196;2022-10-16T13:54:07;2.97;;;2.97;;
24787;SDS011;12883;52.662;5.196;2022-10-16T13:56:36;2.97;;;2.97;;
24787;SDS011;12883;52.662;5.196;2022-10-16T13:59:05;2.58;;;2.58;;
24787;SDS011;12883;52.662;5.196;2022-10-16T14:01:41;2.50;;;2.50;;
24787;SDS011;12883;52.662;5.196;2022-10-16T14:04:10;2.40;;;2.40;;
24787;SDS011;12883;52.662;5.196;2022-10-16T14:06:40;3.03;;;3.03;;
24787;SDS011;12883;52.662;5.196;2022-10-16T14:09:11;2.30;;;2.30;;
24787;SDS011;12883;52.662;5.196;2022-10-16T14:11:48;4.05;;;4.05;;
24787;SDS011;12883;52.662;5.196;2022-10-16T14:14:16;2.97;;;2.97;;
24787;SDS011;12883;52.662;5.196;2022-10-16T14:16:43;2.85;;;2.85;;
24787;SDS011;12883;52.662;5.196;2022-10-16T14:19:13;3.17;;;3.17;;
24787;SDS011;12883;52.662;5.196;2022-10-16T14:21:45;2.90;;;2.90;;
24787;SDS011;12883;52.662;5.196;2022-10-16T14:24:33;2.50;;;2.50;;
24787;SDS011;12883;52.662;5.196;2022-10-16T14:26:58;2.88;;;2.88;;
24787;SDS011;12883;52.662;5.196;2022-10-16T14:29:25;2.88;;;2.88;;
24787;SDS011;12883;52.662;5.196;2022-10-16T14:32:02;2.50;;;2.50;;
24787;SDS011;12883;52.662;5.196;2022-10-16T14:34:33;2.08;;;2.08;;
24787;SDS011;12883;52.662;5.196;2022-10-16T14:37:01;2.50;;;2.50;;
24787;SDS011;12883;52.662;5.196;2022-10-16T14:39:32;2.58;;;2.58;;
24787;SDS011;12883;52.662;5.196;2022-10-16T14:41:58;2.50;;;2.50;;
24787;SDS011;12883;52.662;5.196;2022-10-16T14:44:26;2.47;;;2.47;;
24787;SDS011;12883;52.662;5.196;2022-10-16T14:47:06;2.72;;;2.72;;
24787;SDS011;12883;52.662;5.196;2022-10-16T14:49:34;3.08;;;3.08;;
24787;SDS011;12883;52.662;5.196;2022-10-16T14:51:59;2.70;;;2.70;;
24787;SDS011;12883;52.662;5.196;2022-10-16T14:54:25;2.47;;;2.47;;
24787;SDS011;12883;52.662;5.196;2022-10-16T14:56:53;2.88;;;2.88;;
24787;SDS011;12883;52.662;5.196;2022-10-16T14:59:30;3.05;;;3.05;;
24787;SDS011;12883;52.662;5.196;2022-10-16T15:02:16;4.07;;;4.07;;
24787;SDS011;12883;52.662;5.196;2022-10-16T15:04:52;3.45;;;3.45;;
24787;SDS011;12883;52.662;5.196;2022-10-16T15:07:17;4.75;;;4.75;;
24787;SDS011;12883;52.662;5.196;2022-10-16T15:09:43;5.18;;;5.18;;
24787;SDS011;12883;52.662;5.196;2022-10-16T15:12:08;5.00;;;5.00;;
24787;SDS011;12883;52.662;5.196;2022-10-16T15:14:33;3.35;;;3.35;;
24787;SDS011;12883;52.662;5.196;2022-10-16T15:16:59;3.40;;;3.40;;
24787;SDS011;12883;52.662;5.196;2022-10-16T15:19:25;2.95;;;2.95;;
24787;SDS011;12883;52.662;5.196;2022-10-16T15:21:50;3.08;;;3.08;;
24787;SDS011;12883;52.662;5.196;2022-10-16T15:24:17;2.90;;;2.90;;
24787;SDS011;12883;52.662;5.196;2022-10-16T15:26:42;2.92;;;2.92;;
24787;SDS011;12883;52.662;5.196;2022-10-16T15:29:08;2.97;;;2.97;;
24787;SDS011;12883;52.662;5.196;2022-10-16T15:31:33;2.22;;;2.22;;
24787;SDS011;12883;52.662;5.196;2022-10-16T15:33:59;2.60;;;2.60;;
24787;SDS011;12883;52.662;5.196;2022-10-16T15:36:30;3.38;;;3.38;;
24787;SDS011;12883;52.662;5.196;2022-10-16T15:38:59;4.13;;;4.13;;
24787;SDS011;12883;52.662;5.196;2022-10-16T15:41:25;3.08;;;3.08;;
24787;SDS011;12883;52.662;5.196;2022-10-16T15:43:51;3.47;;;3.47;;
24787;SDS011;12883;52.662;5.196;2022-10-16T15:46:17;3.05;;;3.05;;
24787;SDS011;12883;52.662;5.196;2022-10-16T15:48:44;3.55;;;3.55;;
24787;SDS011;12883;52.662;5.196;2022-10-16T15:51:10;2.90;;;2.90;;
24787;SDS011;12883;52.662;5.196;2022-10-16T15:53:35;2.95;;;2.95;;
24787;SDS011;12883;52.662;5.196;2022-10-16T15:56:04;3.08;;;2.97;;
24787;SDS011;12883;52.662;5.196;2022-10-16T15:58:30;2.65;;;2.65;;
24787;SDS011;12883;52.662;5.196;2022-10-16T16:00:56;3.13;;;3.13;;
24787;SDS011;12883;52.662;5.196;2022-10-16T16:03:23;2.63;;;2.63;;
24787;SDS011;12883;52.662;5.196;2022-10-16T16:05:48;3.15;;;3.15;;
24787;SDS011;12883;52.662;5.196;2022-10-16T16:08:14;3.08;;;3.08;;
24787;SDS011;12883;52.662;5.196;2022-10-16T16:10:39;2.63;;;2.63;;
24787;SDS011;12883;52.662;5.196;2022-10-16T16:13:04;3.10;;;3.10;;
24787;SDS011;12883;52.662;5.196;2022-10-16T16:15:30;2.58;;;2.58;;
24787;SDS011;12883;52.662;5.196;2022-10-16T16:17:55;2.92;;;2.92;;
24787;SDS011;12883;52.662;5.196;2022-10-16T16:20:21;3.28;;;3.28;;
24787;SDS011;12883;52.662;5.196;2022-10-16T16:22:46;3.28;;;3.28;;
24787;SDS011;12883;52.662;5.196;2022-10-16T16:25:12;2.60;;;2.60;;
24787;SDS011;12883;52.662;5.196;2022-10-16T16:27:37;2.72;;;2.72;;
24787;SDS011;12883;52.662;5.196;2022-10-16T16:30:04;2.63;;;2.63;;
24787;SDS011;12883;52.662;5.196;2022-10-16T16:32:32;2.97;;;2.97;;
24787;SDS011;12883;52.662;5.196;2022-10-16T16:34:58;3.05;;;3.05;;
24787;SDS011;12883;52.662;5.196;2022-10-16T16:37:23;2.53;;;2.53;;
24787;SDS011;12883;52.662;5.196;2022-10-16T16:39:49;4.00;;;3.90;;
24787;SDS011;12883;52.662;5.196;2022-10-16T16:42:14;2.78;;;2.78;;
24787;SDS011;12883;52.662;5.196;2022-10-16T16:44:39;2.75;;;2.75;;
24787;SDS011;12883;52.662;5.196;2022-10-16T16:47:05;2.35;;;2.35;;
24787;SDS011;12883;52.662;5.196;2022-10-16T16:49:31;2.97;;;2.97;;
24787;SDS011;12883;52.662;5.196;2022-10-16T16:51:56;4.00;;;3.93;;
24787;SDS011;12883;52.662;5.196;2022-10-16T16:54:22;2.73;;;2.73;;
24787;SDS011;12883;52.662;5.196;2022-10-16T16:56:47;2.83;;;2.83;;
24787;SDS011;12883;52.662;5.196;2022-10-16T16:59:14;2.37;;;2.37;;
24787;SDS011;12883;52.662;5.196;2022-10-16T17:01:42;3.13;;;3.13;;
24787;SDS011;12883;52.662;5.196;2022-10-16T17:04:08;3.87;;;3.87;;
24787;SDS011;12883;52.662;5.196;2022-10-16T17:06:35;3.57;;;3.57;;
24787;SDS011;12883;52.662;5.196;2022-10-16T17:09:02;3.83;;;3.83;;